createdAt,value
2022-09-28T00:02:19.434Z,9.95
2022-09-28T00:04:52.297Z,11.80
2022-09-28T00:07:24.849Z,12.50
2022-09-28T00:09:57.556Z,10.52
2022-09-28T00:12:31.389Z,12.30
2022-09-28T00:15:04.744Z,11.13
2022-09-28T00:17:37.296Z,14.60
2022-09-28T00:20:10.584Z,14.07
2022-09-28T00:22:43.157Z,13.05
2022-09-28T00:25:17.009Z,11.77
2022-09-28T00:27:53.017Z,12.73
2022-09-28T00:30:25.770Z,15.68
2022-09-28T00:32:58.426Z,12.95
2022-09-28T00:35:31.483Z,13.20
2022-09-28T00:38:04.031Z,18.13
2022-09-28T00:40:36.775Z,12.80
2022-09-28T00:43:20.251Z,15.02
2022-09-28T00:46:02.642Z,14.85
2022-09-28T00:48:39.588Z,17.55
2022-09-28T00:51:13.558Z,19.27
2022-09-28T00:53:47.610Z,15.57
2022-09-28T00:56:24.235Z,18.50
2022-09-28T00:58:59.046Z,21.63
2022-09-28T01:01:31.935Z,20.05
2022-09-28T01:04:05.737Z,21.13
2022-09-28T01:06:39.045Z,21.50
2022-09-28T01:09:14.192Z,20.30
2022-09-28T01:11:47.018Z,26.55
2022-09-28T01:14:21.193Z,28.23
2022-09-28T01:16:57.301Z,24.88
2022-09-28T01:19:51.482Z,24.58
2022-09-28T01:22:55.185Z,23.40
2022-09-28T01:25:40.602Z,21.08
2022-09-28T01:28:19.509Z,25.65
2022-09-28T01:30:58.122Z,27.38
2022-09-28T01:33:45.069Z,27.55
2022-09-28T01:36:43.905Z,28.52
2022-09-28T01:39:40.105Z,26.98
2022-09-28T01:42:20.818Z,25.35
2022-09-28T01:44:58.266Z,31.73
2022-09-28T01:47:37.053Z,27.17
2022-09-28T01:50:16.910Z,25.73
2022-09-28T01:52:59.336Z,28.40
2022-09-28T01:55:33.722Z,30.77
2022-09-28T01:58:15.025Z,32.90
2022-09-28T02:00:53.390Z,25.77
2022-09-28T02:03:48.873Z,24.15
2022-09-28T02:06:51.047Z,26.80
2022-09-28T02:09:36.373Z,28.92
2022-09-28T02:12:23.460Z,29.58
2022-09-28T02:15:03.985Z,30.20
2022-09-28T02:17:37.009Z,25.15
2022-09-28T02:20:10.617Z,29.45
2022-09-28T02:22:53.549Z,23.00
2022-09-28T02:25:39.672Z,29.17
2022-09-28T02:28:13.685Z,22.75
2022-09-28T02:30:46.589Z,17.85
2022-09-28T02:33:24.841Z,26.60
2022-09-28T02:35:59.942Z,27.60
2022-09-28T02:38:33.290Z,27.63
2022-09-28T02:41:26.929Z,30.80
2022-09-28T02:44:38.560Z,26.88
2022-09-28T02:47:20.419Z,21.85
2022-09-28T02:50:27.036Z,14.23
2022-09-28T02:53:35.764Z,23.45
2022-09-28T02:56:27.167Z,23.45
2022-09-28T02:59:29.325Z,22.33
2022-09-28T03:02:19.885Z,19.25
2022-09-28T03:04:58.207Z,30.15
2022-09-28T03:07:57.443Z,30.35
2022-09-28T03:10:44.888Z,23.08
2022-09-28T03:13:18.348Z,30.48
2022-09-28T03:15:50.932Z,24.75
2022-09-28T03:18:23.790Z,28.27
2022-09-28T03:20:56.843Z,23.33
2022-09-28T03:23:29.612Z,26.85
2022-09-28T03:26:03.724Z,24.10
2022-09-28T03:28:36.677Z,27.35
2022-09-28T03:31:09.722Z,20.77
2022-09-28T03:33:42.568Z,22.05
2022-09-28T03:36:15.335Z,29.05
2022-09-28T03:38:48.356Z,25.95
2022-09-28T03:41:21.688Z,27.20
2022-09-28T03:43:54.424Z,24.05
2022-09-28T03:46:27.451Z,24.83
2022-09-28T03:49:00.141Z,24.88
2022-09-28T03:51:32.803Z,25.05
2022-09-28T03:54:05.801Z,22.73
2022-09-28T03:56:38.395Z,26.08
2022-09-28T03:59:11.588Z,19.42
2022-09-28T04:01:44.133Z,24.38
2022-09-28T04:04:17.605Z,25.90
2022-09-28T04:06:50.211Z,25.90
2022-09-28T04:09:22.903Z,23.45
2022-09-28T04:12:04.015Z,19.63
2022-09-28T04:14:37.295Z,25.02
2022-09-28T04:17:09.825Z,17.63
2022-09-28T04:19:42.567Z,15.90
2022-09-28T04:22:15.126Z,21.85
2022-09-28T04:24:47.890Z,20.00
2022-09-28T04:27:39.086Z,21.25
2022-09-28T04:30:12.108Z,23.77
2022-09-28T04:32:47.446Z,23.00
2022-09-28T04:35:20.309Z,27.73
2022-09-28T04:37:52.888Z,27.52
2022-09-28T04:40:25.696Z,24.25
2022-09-28T04:42:58.294Z,26.20
2022-09-28T04:45:31.133Z,28.80
2022-09-28T04:48:07.793Z,32.45
2022-09-28T04:50:40.802Z,26.08
2022-09-28T04:53:13.339Z,27.83
2022-09-28T04:55:54.519Z,22.40
2022-09-28T04:58:27.992Z,23.90
2022-09-28T05:01:03.217Z,20.42
2022-09-28T05:03:36.174Z,23.60
2022-09-28T05:06:09.833Z,21.85
2022-09-28T05:08:43.143Z,17.63
2022-09-28T05:11:15.964Z,16.23
2022-09-28T05:13:50.496Z,20.23
2022-09-28T05:16:25.253Z,17.85
2022-09-28T05:18:57.891Z,17.92
2022-09-28T05:21:33.962Z,17.92
2022-09-28T05:24:07.739Z,17.88
2022-09-28T05:26:40.686Z,20.48
2022-09-28T05:29:13.398Z,18.02
2022-09-28T05:31:46.295Z,16.95
2022-09-28T05:34:18.887Z,15.07
2022-09-28T05:36:51.592Z,16.67
2022-09-28T05:39:24.167Z,15.52
2022-09-28T05:41:57.961Z,16.45
2022-09-28T05:44:30.750Z,16.95
2022-09-28T05:47:03.531Z,20.38
2022-09-28T05:49:36.138Z,17.48
2022-09-28T05:52:08.887Z,15.13
2022-09-28T05:54:41.486Z,15.75
2022-09-28T05:57:14.999Z,16.58
2022-09-28T05:59:47.680Z,18.63
2022-09-28T06:02:20.762Z,15.45
2022-09-28T06:04:53.952Z,16.45
2022-09-28T06:07:26.772Z,16.23
2022-09-28T06:09:59.752Z,14.68
2022-09-28T06:12:34.195Z,15.45
2022-09-28T06:15:07.458Z,16.75
2022-09-28T06:17:40.657Z,16.50
2022-09-28T06:20:13.311Z,18.00
2022-09-28T06:22:46.070Z,13.90
2022-09-28T06:25:18.834Z,16.13
2022-09-28T06:28:03.261Z,19.75
2022-09-28T06:30:39.143Z,14.43
2022-09-28T06:33:15.095Z,14.75
2022-09-28T06:35:48.087Z,16.67
2022-09-28T06:38:20.842Z,17.58
2022-09-28T06:40:53.457Z,20.52
2022-09-28T06:43:27.559Z,21.83
2022-09-28T06:46:03.019Z,17.95
2022-09-28T06:48:36.443Z,16.52
2022-09-28T06:51:09.018Z,20.75
2022-09-28T06:53:41.887Z,18.42
2022-09-28T06:56:14.543Z,14.57
2022-09-28T06:58:47.994Z,18.45
2022-09-28T07:01:21.876Z,16.20
2022-09-28T07:03:55.792Z,16.38
2022-09-28T07:06:30.085Z,18.45
2022-09-28T07:09:23.166Z,11.88
2022-09-28T07:11:59.055Z,11.50
2022-09-28T07:14:47.461Z,11.18
2022-09-28T07:17:20.641Z,7.68
2022-09-28T07:19:53.749Z,10.32
2022-09-28T07:22:39.223Z,11.88
2022-09-28T07:25:15.562Z,11.88
2022-09-28T07:27:48.283Z,10.05
2022-09-28T07:30:21.169Z,10.82
2022-09-28T07:32:54.501Z,12.70
2022-09-28T07:35:28.220Z,10.63
2022-09-28T07:38:08.262Z,17.05
2022-09-28T07:40:59.637Z,14.98
2022-09-28T07:43:32.791Z,8.57
2022-09-28T07:46:09.478Z,11.32
2022-09-28T07:48:43.637Z,12.95
2022-09-28T07:51:19.839Z,12.52
2022-09-28T07:53:54.282Z,12.40
2022-09-28T07:56:27.090Z,16.05
2022-09-28T07:58:59.675Z,18.13
2022-09-28T08:01:32.775Z,14.98
2022-09-28T08:04:06.282Z,18.73
2022-09-28T08:06:40.600Z,18.83
2022-09-28T08:09:13.207Z,18.23
2022-09-28T08:11:45.982Z,19.58
2022-09-28T08:14:18.651Z,18.38
2022-09-28T08:16:53.470Z,22.77
2022-09-28T08:19:26.279Z,15.55
2022-09-28T08:21:59.429Z,14.13
2022-09-28T08:24:32.326Z,14.85
2022-09-28T08:27:05.092Z,15.05
2022-09-28T08:29:37.902Z,14.25
2022-09-28T08:32:11.183Z,14.85
2022-09-28T08:34:44.148Z,14.98
2022-09-28T08:37:16.964Z,12.25
2022-09-28T08:39:49.550Z,11.35
2022-09-28T08:42:38.546Z,17.63
2022-09-28T08:45:23.270Z,15.20
2022-09-28T08:48:41.925Z,12.88
2022-09-28T08:51:22.036Z,13.85
2022-09-28T08:54:22.806Z,14.13
2022-09-28T08:57:19.309Z,13.13
2022-09-28T08:59:55.850Z,12.95
2022-09-28T09:02:39.360Z,14.25
2022-09-28T09:05:16.122Z,18.63
2022-09-28T09:07:51.562Z,15.98
2022-09-28T09:10:53.330Z,13.30
2022-09-28T09:13:50.804Z,12.50
2022-09-28T09:17:00.637Z,13.70
2022-09-28T09:19:48.510Z,15.98
2022-09-28T09:22:40.974Z,15.75
2022-09-28T09:25:27.019Z,18.88
2022-09-28T09:28:39.232Z,17.17
2022-09-28T09:31:43.185Z,19.05
2022-09-28T09:34:27.967Z,14.93
2022-09-28T09:37:16.833Z,19.48
2022-09-28T09:40:13.890Z,20.80
2022-09-28T09:42:55.577Z,18.00
2022-09-28T09:46:01.750Z,20.27
2022-09-28T09:48:47.805Z,22.63
2022-09-28T09:51:26.592Z,19.13
2022-09-28T09:54:04.204Z,24.90
2022-09-28T09:56:48.969Z,21.88
2022-09-28T09:59:27.575Z,18.75
2022-09-28T10:02:13.543Z,19.45
2022-09-28T10:04:48.461Z,22.17
2022-09-28T10:07:25.676Z,27.38
2022-09-28T10:10:00.274Z,28.90
2022-09-28T10:12:33.807Z,38.95
2022-09-28T10:15:08.166Z,42.42
2022-09-28T10:17:41.079Z,49.35
2022-09-28T10:20:16.265Z,48.40
2022-09-28T10:22:51.803Z,47.22
2022-09-28T10:25:25.270Z,43.38
2022-09-28T10:28:00.338Z,47.22
2022-09-28T10:30:44.389Z,47.30
2022-09-28T10:33:32.795Z,43.75
2022-09-28T10:36:07.610Z,33.00
2022-09-28T10:38:48.427Z,39.05
2022-09-28T10:41:22.847Z,36.20
2022-09-28T10:44:06.905Z,41.10
2022-09-28T10:46:40.186Z,35.65
2022-09-28T10:49:17.941Z,31.00
2022-09-28T10:51:58.984Z,26.35
2022-09-28T10:54:32.759Z,21.02
2022-09-28T10:57:35.478Z,29.95
2022-09-28T11:00:34.126Z,32.35
2022-09-28T11:03:17.187Z,35.85
2022-09-28T11:05:59.618Z,37.75
2022-09-28T11:08:38.749Z,37.03
2022-09-28T11:11:19.469Z,35.33
2022-09-28T11:16:36.500Z,31.95
2022-09-28T11:19:21.396Z,36.88
2022-09-28T11:21:54.304Z,32.83
2022-09-28T11:24:27.325Z,29.20
2022-09-28T11:27:00.370Z,30.33
2022-09-28T11:29:38.644Z,34.25
2022-09-28T11:32:15.667Z,27.80
2022-09-28T11:35:05.491Z,36.85
2022-09-28T11:38:04.176Z,23.08
2022-09-28T11:40:39.838Z,17.88
2022-09-28T11:43:16.777Z,20.38
2022-09-28T11:46:03.847Z,19.63
2022-09-28T11:48:46.437Z,21.25
2022-09-28T11:51:25.150Z,18.42
2022-09-28T11:54:14.573Z,20.33
2022-09-28T11:56:50.034Z,13.80
2022-09-28T11:59:33.532Z,10.90
2022-09-28T12:02:24.941Z,14.40
2022-09-28T12:05:26.032Z,13.90
2022-09-28T12:08:22.139Z,13.32
2022-09-28T12:11:09.918Z,13.90
2022-09-28T12:13:48.305Z,11.57
2022-09-28T12:16:46.879Z,12.75
2022-09-28T12:19:30.994Z,13.57
2022-09-28T12:22:18.311Z,12.45
2022-09-28T12:24:55.529Z,7.82
2022-09-28T12:27:51.015Z,6.55
2022-09-28T12:30:28.366Z,6.90
2022-09-28T12:33:06.996Z,8.02
2022-09-28T12:36:02.508Z,7.80
2022-09-28T12:39:27.142Z,6.80
2022-09-28T12:42:35.133Z,4.78
2022-09-28T12:45:27.795Z,8.55
2022-09-28T12:48:11.613Z,4.88
2022-09-28T12:51:09.623Z,7.82
2022-09-28T12:54:10.939Z,6.03
2022-09-28T12:57:10.781Z,5.03
2022-09-28T12:59:53.041Z,9.63
2022-09-28T13:02:46.143Z,4.45
2022-09-28T13:05:24.466Z,5.07
2022-09-28T13:08:06.124Z,4.30
2022-09-28T13:10:44.451Z,6.43
2022-09-28T13:13:32.100Z,4.63
2022-09-28T13:16:29.531Z,4.93
2022-09-28T13:19:13.153Z,3.60
2022-09-28T13:22:17.860Z,4.45
2022-09-28T13:24:52.169Z,3.92
2022-09-28T13:27:37.117Z,4.82
2022-09-28T13:30:14.808Z,3.72
2022-09-28T13:32:49.967Z,6.35
2022-09-28T13:35:22.982Z,3.58
2022-09-28T13:38:21.789Z,2.70
2022-09-28T13:41:09.289Z,4.70
2022-09-28T13:43:41.942Z,4.45
2022-09-28T13:46:40.663Z,2.63
2022-09-28T13:49:18.558Z,3.72
2022-09-28T13:52:03.226Z,4.80
2022-09-28T13:54:57.617Z,5.05
2022-09-28T13:57:56.341Z,4.43
2022-09-28T14:00:30.836Z,4.10
2022-09-28T14:03:06.417Z,5.60
2022-09-28T14:06:04.974Z,4.93
2022-09-28T14:08:59.223Z,4.45
2022-09-28T14:11:35.054Z,4.53
2022-09-28T14:14:08.063Z,4.38
2022-09-28T14:16:44.493Z,4.53
2022-09-28T14:19:34.778Z,6.00
2022-09-28T14:24:55.570Z,5.88
2022-09-28T14:27:44.262Z,5.85
2022-09-28T14:30:25.023Z,5.93
2022-09-28T14:32:59.945Z,4.50
2022-09-28T14:35:40.115Z,6.72
2022-09-28T14:41:34.610Z,12.80
2022-09-28T14:44:18.207Z,5.05
2022-09-28T14:47:46.411Z,2.40
2022-09-28T14:50:24.776Z,4.50
2022-09-28T14:53:08.115Z,2.90
2022-09-28T14:55:51.015Z,16.83
2022-09-28T14:58:27.869Z,7.53
2022-09-28T15:01:10.945Z,3.07
2022-09-28T15:03:47.157Z,2.60
2022-09-28T15:06:23.453Z,7.63
2022-09-28T15:09:02.333Z,2.92
2022-09-28T15:11:35.057Z,2.75
2022-09-28T15:14:10.706Z,3.90
2022-09-28T15:16:43.628Z,5.47
2022-09-28T15:19:42.968Z,5.28
2022-09-28T15:22:17.328Z,4.13
2022-09-28T15:25:02.491Z,5.43
2022-09-28T15:27:38.377Z,8.63
2022-09-28T15:30:25.896Z,7.20
2022-09-28T15:33:19.209Z,7.78
2022-09-28T15:35:57.862Z,4.10
2022-09-28T15:38:34.249Z,4.22
2022-09-28T15:41:11.064Z,4.22
2022-09-28T15:43:47.020Z,3.33
2022-09-28T15:46:30.646Z,2.47
2022-09-28T15:49:11.173Z,2.65
2022-09-28T15:51:55.775Z,3.25
2022-09-28T15:54:44.224Z,4.18
2022-09-28T15:57:40.197Z,3.67
2022-09-28T16:00:25.783Z,2.72
2022-09-28T16:03:11.861Z,2.65
2022-09-28T16:06:05.193Z,3.28
2022-09-28T16:08:42.258Z,3.22
2022-09-28T16:11:24.477Z,6.25
2022-09-28T16:14:27.444Z,2.53
2022-09-28T16:17:00.274Z,5.78
2022-09-28T16:19:37.846Z,3.72
2022-09-28T16:22:20.177Z,4.97
2022-09-28T16:24:59.097Z,3.72
2022-09-28T16:27:43.310Z,6.45
2022-09-28T16:30:25.324Z,7.43
2022-09-28T16:33:01.581Z,4.20
2022-09-28T16:35:41.036Z,7.65
2022-09-28T16:38:16.854Z,2.90
2022-09-28T16:40:55.255Z,2.75
2022-09-28T16:43:30.470Z,7.97
2022-09-28T16:46:10.618Z,4.60
2022-09-28T16:48:48.875Z,2.90
2022-09-28T16:51:23.402Z,3.90
2022-09-28T16:54:30.183Z,5.95
2022-09-28T16:57:05.438Z,4.07
2022-09-28T16:59:39.046Z,5.28
2022-09-28T17:02:35.292Z,6.25
2022-09-28T17:05:10.273Z,9.00
2022-09-28T17:07:52.915Z,7.63
2022-09-28T17:10:56.145Z,7.25
2022-09-28T17:13:34.729Z,5.18
2022-09-28T17:16:15.971Z,6.55
2022-09-28T17:18:49.511Z,3.55
2022-09-28T17:21:22.426Z,5.00
2022-09-28T17:23:55.796Z,5.68
2022-09-28T17:26:34.628Z,7.90
2022-09-28T17:29:09.961Z,6.93
2022-09-28T17:31:46.908Z,8.88
2022-09-28T17:34:20.990Z,7.75
2022-09-28T17:36:53.933Z,11.07
2022-09-28T17:39:27.372Z,6.40
2022-09-28T17:42:00.099Z,5.63
2022-09-28T17:44:33.278Z,8.35
2022-09-28T17:47:06.886Z,8.68
2022-09-28T17:49:40.234Z,5.20
2022-09-28T17:52:13.183Z,9.85
2022-09-28T17:54:46.012Z,9.23
2022-09-28T17:57:18.586Z,9.02
2022-09-28T17:59:51.391Z,7.63
2022-09-28T18:02:25.331Z,9.10
2022-09-28T18:04:58.605Z,9.60
2022-09-28T18:07:34.421Z,13.40
2022-09-28T18:10:12.222Z,3.55
2022-09-28T18:12:44.837Z,4.22
2022-09-28T18:15:19.301Z,15.75
2022-09-28T18:17:51.841Z,12.70
2022-09-28T18:20:24.646Z,8.10
2022-09-28T18:22:57.807Z,12.60
2022-09-28T18:25:31.068Z,11.05
2022-09-28T18:28:03.618Z,10.05
2022-09-28T18:30:40.378Z,7.97
2022-09-28T18:33:14.495Z,11.32
2022-09-28T18:35:54.458Z,6.57
2022-09-28T18:38:27.138Z,11.25
2022-09-28T18:41:10.592Z,12.95
2022-09-28T18:43:49.240Z,11.82
2022-09-28T18:46:22.242Z,7.97
2022-09-28T18:48:55.341Z,14.70
2022-09-28T18:51:28.168Z,12.55
2022-09-28T18:54:11.713Z,11.10
2022-09-28T18:56:44.698Z,16.23
2022-09-28T18:59:17.661Z,17.38
2022-09-28T19:01:52.968Z,13.52
2022-09-28T19:04:25.773Z,15.40
2022-09-28T19:06:59.428Z,18.73
2022-09-28T19:09:32.181Z,15.10
2022-09-28T19:12:05.430Z,15.77
2022-09-28T19:14:38.121Z,15.13
2022-09-28T19:17:11.200Z,17.33
2022-09-28T19:19:43.893Z,15.50
2022-09-28T19:22:16.700Z,13.50
2022-09-28T19:24:49.341Z,10.77
2022-09-28T19:27:22.337Z,13.20
2022-09-28T19:29:55.424Z,12.10
2022-09-28T19:32:29.492Z,12.25
2022-09-28T19:35:04.169Z,14.23
2022-09-28T19:37:37.721Z,13.50
2022-09-28T19:40:10.436Z,11.88
2022-09-28T19:42:43.220Z,11.23
2022-09-28T19:45:15.921Z,10.45
2022-09-28T19:47:49.809Z,13.07
2022-09-28T19:50:22.596Z,11.30
2022-09-28T19:52:57.145Z,8.57
2022-09-28T19:55:31.936Z,9.25
2022-09-28T19:58:05.053Z,9.50
2022-09-28T20:00:37.748Z,6.38
2022-09-28T20:03:12.144Z,8.73
2022-09-28T20:05:45.772Z,7.00
2022-09-28T20:08:18.964Z,6.65
2022-09-28T20:10:54.594Z,9.07
2022-09-28T20:13:32.868Z,7.85
2022-09-28T20:16:08.006Z,6.32
2022-09-28T20:18:44.169Z,8.07
2022-09-28T20:21:20.109Z,9.50
2022-09-28T20:23:54.233Z,10.35
2022-09-28T20:26:27.785Z,5.65
2022-09-28T20:29:00.705Z,6.07
2022-09-28T20:31:38.418Z,7.97
2022-09-28T20:34:12.370Z,5.22
2022-09-28T20:36:45.040Z,6.63
2022-09-28T20:39:18.243Z,7.00
2022-09-28T20:41:51.089Z,7.97
2022-09-28T20:44:23.918Z,8.63
2022-09-28T20:46:56.847Z,8.35
2022-09-28T20:49:29.841Z,10.43
2022-09-28T20:52:02.672Z,11.35
2022-09-28T20:54:35.592Z,12.63
2022-09-28T20:57:17.675Z,16.55
2022-09-28T20:59:54.478Z,14.48
2022-09-28T21:02:28.357Z,15.50
2022-09-28T21:05:01.205Z,17.67
2022-09-28T21:07:33.842Z,14.65
2022-09-28T21:10:09.265Z,17.08
2022-09-28T21:12:42.043Z,15.10
2022-09-28T21:15:15.122Z,14.70
2022-09-28T21:17:47.788Z,11.23
2022-09-28T21:20:20.665Z,19.80
2022-09-28T21:22:53.531Z,13.27
2022-09-28T21:25:26.329Z,14.27
2022-09-28T21:27:58.897Z,16.60
2022-09-28T21:30:31.794Z,15.10
2022-09-28T21:33:04.559Z,12.77
2022-09-28T21:35:39.352Z,12.65
2022-09-28T21:38:12.004Z,13.60
2022-09-28T21:40:45.271Z,12.98
2022-09-28T21:43:17.841Z,11.05
2022-09-28T21:45:55.118Z,12.18
2022-09-28T21:48:29.060Z,12.43
2022-09-28T21:51:08.046Z,9.95
2022-09-28T21:53:40.999Z,11.65
2022-09-28T21:56:13.841Z,14.18
2022-09-28T21:58:47.241Z,11.40
2022-09-28T22:01:22.013Z,12.48
2022-09-28T22:03:56.152Z,13.77
2022-09-28T22:06:29.251Z,16.73
2022-09-28T22:09:02.050Z,14.13
2022-09-28T22:11:34.897Z,14.10
2022-09-28T22:14:07.539Z,14.68
2022-09-28T22:16:40.812Z,15.80
2022-09-28T22:19:13.507Z,18.48
2022-09-28T22:21:47.350Z,18.10
2022-09-28T22:24:20.313Z,17.48
2022-09-28T22:26:53.279Z,21.70
2022-09-28T22:29:26.116Z,20.58
2022-09-28T22:32:02.356Z,25.45
2022-09-28T22:34:34.960Z,21.08
2022-09-28T22:37:07.694Z,23.80
2022-09-28T22:39:41.158Z,26.02
2022-09-28T22:42:14.485Z,23.15
2022-09-28T22:44:47.393Z,24.00
2022-09-28T22:47:20.258Z,22.20
2022-09-28T22:49:52.953Z,21.15
2022-09-28T22:52:25.723Z,24.52
2022-09-28T22:54:58.254Z,22.85
2022-09-28T22:57:31.062Z,21.48
2022-09-28T23:00:04.453Z,25.00
2022-09-28T23:02:37.711Z,22.88
2022-09-28T23:05:10.436Z,23.85
2022-09-28T23:07:43.703Z,23.25
2022-09-28T23:10:16.372Z,22.00
2022-09-28T23:12:49.172Z,20.77
2022-09-28T23:15:22.731Z,17.55
2022-09-28T23:17:55.804Z,22.63
2022-09-28T23:20:28.620Z,20.00
2022-09-28T23:23:01.370Z,18.05
2022-09-28T23:25:33.918Z,15.40
2022-09-28T23:28:06.856Z,15.45
2022-09-28T23:30:39.753Z,14.35
2022-09-28T23:33:13.996Z,14.18
2022-09-28T23:35:47.157Z,17.00
2022-09-28T23:38:20.008Z,15.95
2022-09-28T23:40:52.663Z,13.60
2022-09-28T23:43:25.597Z,15.27
2022-09-28T23:45:58.200Z,15.85
2022-09-28T23:48:31.227Z,13.40
2022-09-28T23:51:04.180Z,17.10
2022-09-28T23:53:37.263Z,17.90
2022-09-28T23:56:09.992Z,21.05
2022-09-28T23:58:43.183Z,15.48
